sensor_id;sensor_type;location;lat;lon;timestamp;pressure;altitude;pressure_sealevel;temperature;humidity
72096;BME280;59968;51.084;16.748;2023-07-13T00:01:16;99813.27;;;22.05;73.91
72096;BME280;59968;51.084;16.748;2023-07-13T00:03:45;99810.52;;;21.97;74.05
72096;BME280;59968;51.084;16.748;2023-07-13T00:06:14;99813.73;;;21.99;74.06
72096;BME280;59968;51.084;16.748;2023-07-13T00:08:43;99801.39;;;21.97;74.18
72096;BME280;59968;51.084;16.748;2023-07-13T00:11:11;99789.38;;;21.94;74.13
72096;BME280;59968;51.084;16.748;2023-07-13T00:13:41;99786.44;;;21.92;74.03
72096;BME280;59968;51.084;16.748;2023-07-13T00:16:11;99790.79;;;21.86;73.85
72096;BME280;59968;51.084;16.748;2023-07-13T00:18:42;99799.45;;;21.75;73.92
72096;BME280;59968;51.084;16.748;2023-07-13T00:21:11;99803.58;;;21.64;73.66
72096;BME280;59968;51.084;16.748;2023-07-13T00:23:41;99807.61;;;21.52;73.51
72096;BME280;59968;51.084;16.748;2023-07-13T00:26:10;99810.36;;;21.42;73.57
72096;BME280;59968;51.084;16.748;2023-07-13T00:28:41;99813.34;;;21.33;73.66
72096;BME280;59968;51.084;16.748;2023-07-13T00:31:12;99819.80;;;21.28;73.60
72096;BME280;59968;51.084;16.748;2023-07-13T00:33:43;99823.66;;;21.27;73.81
72096;BME280;59968;51.084;16.748;2023-07-13T00:36:12;99825.09;;;21.28;73.83
72096;BME280;59968;51.084;16.748;2023-07-13T00:38:41;99823.77;;;21.27;73.89
72096;BME280;59968;51.084;16.748;2023-07-13T00:41:10;99825.77;;;21.25;74.04
72096;BME280;59968;51.084;16.748;2023-07-13T00:43:40;99827.86;;;21.19;73.95
72096;BME280;59968;51.084;16.748;2023-07-13T00:48:46;99829.58;;;21.06;73.63
72096;BME280;59968;51.084;16.748;2023-07-13T00:51:25;99833.65;;;20.98;73.38
72096;BME280;59968;51.084;16.748;2023-07-13T00:53:58;99834.57;;;20.88;73.55
72096;BME280;59968;51.084;16.748;2023-07-13T00:56:29;99836.75;;;20.76;73.66
72096;BME280;59968;51.084;16.748;2023-07-13T00:58:57;99837.83;;;20.65;73.74
72096;BME280;59968;51.084;16.748;2023-07-13T01:01:27;99842.11;;;20.56;73.85
72096;BME280;59968;51.084;16.748;2023-07-13T01:03:56;99836.36;;;20.49;74.23
72096;BME280;59968;51.084;16.748;2023-07-13T01:06:25;99831.26;;;20.45;74.42
72096;BME280;59968;51.084;16.748;2023-07-13T01:08:56;99834.20;;;20.45;74.43
72096;BME280;59968;51.084;16.748;2023-07-13T01:11:27;99830.37;;;20.43;74.54
72096;BME280;59968;51.084;16.748;2023-07-13T01:13:57;99834.36;;;20.42;74.57
72096;BME280;59968;51.084;16.748;2023-07-13T01:16:31;99830.27;;;20.40;74.64
72096;BME280;59968;51.084;16.748;2023-07-13T01:19:02;99826.73;;;20.43;74.39
72096;BME280;59968;51.084;16.748;2023-07-13T01:21:33;99828.31;;;20.44;74.28
72096;BME280;59968;51.084;16.748;2023-07-13T01:24:01;99825.20;;;20.44;74.33
72096;BME280;59968;51.084;16.748;2023-07-13T01:26:30;99823.14;;;20.42;74.49
72096;BME280;59968;51.084;16.748;2023-07-13T01:28:59;99820.95;;;20.30;74.56
72096;BME280;59968;51.084;16.748;2023-07-13T01:31:27;99813.92;;;20.24;74.57
72096;BME280;59968;51.084;16.748;2023-07-13T01:33:55;99805.36;;;20.13;74.57
72096;BME280;59968;51.084;16.748;2023-07-13T01:36:25;99797.36;;;20.08;74.48
72096;BME280;59968;51.084;16.748;2023-07-13T01:38:54;99794.63;;;20.04;74.54
72096;BME280;59968;51.084;16.748;2023-07-13T01:41:23;99791.62;;;19.98;74.70
72096;BME280;59968;51.084;16.748;2023-07-13T01:44:12;99791.61;;;19.90;74.96
72096;BME280;59968;51.084;16.748;2023-07-13T01:46:40;99790.64;;;19.77;75.49
72096;BME280;59968;51.084;16.748;2023-07-13T01:49:09;99791.55;;;19.80;75.35
72096;BME280;59968;51.084;16.748;2023-07-13T01:51:37;99792.48;;;19.76;75.34
72096;BME280;59968;51.084;16.748;2023-07-13T01:54:06;99785.00;;;19.64;75.86
72096;BME280;59968;51.084;16.748;2023-07-13T01:56:35;99787.31;;;19.63;76.07
72096;BME280;59968;51.084;16.748;2023-07-13T01:59:03;99789.16;;;19.64;75.80
72096;BME280;59968;51.084;16.748;2023-07-13T02:01:32;99787.23;;;19.67;75.66
72096;BME280;59968;51.084;16.748;2023-07-13T02:04:02;99792.68;;;19.69;75.73
72096;BME280;59968;51.084;16.748;2023-07-13T02:06:33;99794.95;;;19.71;75.77
72096;BME280;59968;51.084;16.748;2023-07-13T02:09:02;99800.43;;;19.73;75.89
72096;BME280;59968;51.084;16.748;2023-07-13T02:11:32;99800.60;;;19.74;75.67
72096;BME280;59968;51.084;16.748;2023-07-13T02:14:02;99799.39;;;19.75;75.60
72096;BME280;59968;51.084;16.748;2023-07-13T02:16:31;99791.96;;;19.76;75.37
72096;BME280;59968;51.084;16.748;2023-07-13T02:19:00;99779.17;;;19.77;75.30
72096;BME280;59968;51.084;16.748;2023-07-13T02:21:29;99764.92;;;19.79;75.45
72096;BME280;59968;51.084;16.748;2023-07-13T02:23:57;99764.64;;;19.76;75.50
72096;BME280;59968;51.084;16.748;2023-07-13T02:26:27;99771.65;;;19.75;75.80
72096;BME280;59968;51.084;16.748;2023-07-13T02:28:55;99770.39;;;19.80;75.58
72096;BME280;59968;51.084;16.748;2023-07-13T02:31:24;99770.29;;;19.82;75.17
72096;BME280;59968;51.084;16.748;2023-07-13T02:33:54;99772.02;;;19.84;75.07
72096;BME280;59968;51.084;16.748;2023-07-13T02:36:22;99771.29;;;19.80;75.07
72096;BME280;59968;51.084;16.748;2023-07-13T02:38:51;99779.13;;;19.78;75.17
72096;BME280;59968;51.084;16.748;2023-07-13T02:41:19;99783.95;;;19.73;75.10
72096;BME280;59968;51.084;16.748;2023-07-13T02:43:47;99785.90;;;19.68;75.71
72096;BME280;59968;51.084;16.748;2023-07-13T02:46:16;99779.63;;;19.60;75.63
72096;BME280;59968;51.084;16.748;2023-07-13T02:48:45;99781.59;;;19.46;75.70
72096;BME280;59968;51.084;16.748;2023-07-13T02:51:14;99791.52;;;19.33;75.83
72096;BME280;59968;51.084;16.748;2023-07-13T02:53:43;99799.73;;;19.21;76.01
72096;BME280;59968;51.084;16.748;2023-07-13T02:56:12;99802.90;;;19.15;76.24
72096;BME280;59968;51.084;16.748;2023-07-13T02:58:44;99806.69;;;19.14;76.42
72096;BME280;59968;51.084;16.748;2023-07-13T03:01:13;99809.88;;;19.12;76.49
72096;BME280;59968;51.084;16.748;2023-07-13T03:03:51;99811.23;;;19.07;76.60
72096;BME280;59968;51.084;16.748;2023-07-13T03:06:20;99805.45;;;19.07;76.84
72096;BME280;59968;51.084;16.748;2023-07-13T03:08:52;99795.61;;;19.08;76.50
72096;BME280;59968;51.084;16.748;2023-07-13T03:11:20;99789.32;;;19.10;76.66
72096;BME280;59968;51.084;16.748;2023-07-13T03:13:54;99785.73;;;19.07;76.62
72096;BME280;59968;51.084;16.748;2023-07-13T03:16:23;99788.72;;;19.04;76.81
72096;BME280;59968;51.084;16.748;2023-07-13T03:18:52;99786.61;;;19.02;76.76
72096;BME280;59968;51.084;16.748;2023-07-13T03:21:21;99792.81;;;19.05;76.53
72096;BME280;59968;51.084;16.748;2023-07-13T03:23:49;99797.66;;;19.08;76.49
72096;BME280;59968;51.084;16.748;2023-07-13T03:26:19;99800.05;;;19.14;76.56
72096;BME280;59968;51.084;16.748;2023-07-13T03:28:49;99802.23;;;19.16;76.15
72096;BME280;59968;51.084;16.748;2023-07-13T03:31:25;99808.08;;;19.17;75.97
72096;BME280;59968;51.084;16.748;2023-07-13T03:33:55;99809.23;;;19.18;75.92
72096;BME280;59968;51.084;16.748;2023-07-13T03:36:26;99810.06;;;19.19;75.97
72096;BME280;59968;51.084;16.748;2023-07-13T03:39:00;99810.80;;;19.20;75.84
72096;BME280;59968;51.084;16.748;2023-07-13T03:41:37;99804.56;;;19.23;75.80
72096;BME280;59968;51.084;16.748;2023-07-13T03:44:06;99806.75;;;19.30;76.08
72096;BME280;59968;51.084;16.748;2023-07-13T03:46:35;99808.27;;;19.37;75.99
72096;BME280;59968;51.084;16.748;2023-07-13T03:49:05;99800.17;;;19.36;75.66
72096;BME280;59968;51.084;16.748;2023-07-13T03:51:33;99809.73;;;19.46;75.35
72096;BME280;59968;51.084;16.748;2023-07-13T03:54:03;99816.61;;;19.45;75.13
72096;BME280;59968;51.084;16.748;2023-07-13T03:56:32;99825.08;;;19.43;75.01
72096;BME280;59968;51.084;16.748;2023-07-13T03:59:02;99838.36;;;19.37;74.80
72096;BME280;59968;51.084;16.748;2023-07-13T04:01:31;99856.14;;;19.30;74.72
72096;BME280;59968;51.084;16.748;2023-07-13T04:03:59;99878.13;;;19.22;74.61
72096;BME280;59968;51.084;16.748;2023-07-13T04:06:32;99908.95;;;19.16;74.63
72096;BME280;59968;51.084;16.748;2023-07-13T04:09:02;99916.98;;;19.12;74.17
72096;BME280;59968;51.084;16.748;2023-07-13T04:11:34;99932.44;;;19.05;73.60
72096;BME280;59968;51.084;16.748;2023-07-13T04:14:06;99937.77;;;18.93;75.38
72096;BME280;59968;51.084;16.748;2023-07-13T04:16:35;99980.98;;;18.87;76.93
72096;BME280;59968;51.084;16.748;2023-07-13T04:19:04;100009.34;;;18.68;78.43
72096;BME280;59968;51.084;16.748;2023-07-13T04:21:32;100018.52;;;18.47;79.74
72096;BME280;59968;51.084;16.748;2023-07-13T04:24:01;100042.52;;;18.25;81.54
72096;BME280;59968;51.084;16.748;2023-07-13T04:26:31;100070.37;;;18.06;83.35
72096;BME280;59968;51.084;16.748;2023-07-13T04:29:00;100083.95;;;17.91;84.49
72096;BME280;59968;51.084;16.748;2023-07-13T04:31:28;100093.66;;;17.76;85.29
72096;BME280;59968;51.084;16.748;2023-07-13T04:33:56;100102.60;;;17.63;85.94
72096;BME280;59968;51.084;16.748;2023-07-13T04:36:26;100107.99;;;17.53;85.73
72096;BME280;59968;51.084;16.748;2023-07-13T04:38:57;100108.12;;;17.46;85.81
72096;BME280;59968;51.084;16.748;2023-07-13T04:41:26;100097.69;;;17.39;86.27
72096;BME280;59968;51.084;16.748;2023-07-13T04:43:54;100088.44;;;17.31;85.64
72096;BME280;59968;51.084;16.748;2023-07-13T04:46:24;100088.30;;;17.29;85.36
72096;BME280;59968;51.084;16.748;2023-07-13T04:48:53;100086.35;;;17.26;85.83
72096;BME280;59968;51.084;16.748;2023-07-13T04:51:22;100092.31;;;17.24;86.47
72096;BME280;59968;51.084;16.748;2023-07-13T04:53:50;100099.20;;;17.23;86.85
72096;BME280;59968;51.084;16.748;2023-07-13T04:56:25;100088.04;;;17.23;87.05
72096;BME280;59968;51.084;16.748;2023-07-13T04:58:54;100058.86;;;17.24;86.93
72096;BME280;59968;51.084;16.748;2023-07-13T05:01:23;100036.59;;;17.28;86.92
72096;BME280;59968;51.084;16.748;2023-07-13T05:03:51;100031.52;;;17.32;86.75
72096;BME280;59968;51.084;16.748;2023-07-13T05:06:21;100029.73;;;17.35;87.03
72096;BME280;59968;51.084;16.748;2023-07-13T05:08:49;100023.51;;;17.39;87.03
72096;BME280;59968;51.084;16.748;2023-07-13T05:11:18;100019.42;;;17.46;86.91
72096;BME280;59968;51.084;16.748;2023-07-13T05:13:47;100012.55;;;17.50;86.64
72096;BME280;59968;51.084;16.748;2023-07-13T05:16:16;100012.12;;;17.52;86.31
72096;BME280;59968;51.084;16.748;2023-07-13T05:18:45;100013.48;;;17.56;86.18
72096;BME280;59968;51.084;16.748;2023-07-13T05:21:15;100023.92;;;17.58;85.92
72096;BME280;59968;51.084;16.748;2023-07-13T05:23:49;100023.84;;;17.64;86.15
72096;BME280;59968;51.084;16.748;2023-07-13T05:26:18;100019.91;;;17.68;86.53
72096;BME280;59968;51.084;16.748;2023-07-13T05:28:48;100008.92;;;17.71;86.61
72096;BME280;59968;51.084;16.748;2023-07-13T05:31:17;99998.95;;;17.75;86.35
72096;BME280;59968;51.084;16.748;2023-07-13T05:33:46;99981.08;;;17.80;85.98
72096;BME280;59968;51.084;16.748;2023-07-13T05:36:14;99966.54;;;17.83;85.78
72096;BME280;59968;51.084;16.748;2023-07-13T05:38:43;99951.27;;;17.86;85.53
72096;BME280;59968;51.084;16.748;2023-07-13T05:41:11;99940.48;;;17.88;85.34
72096;BME280;59968;51.084;16.748;2023-07-13T05:43:40;99942.04;;;17.92;85.23
72096;BME280;59968;51.084;16.748;2023-07-13T05:46:09;99959.84;;;17.98;85.23
72096;BME280;59968;51.084;16.748;2023-07-13T05:48:37;99975.45;;;18.04;85.19
72096;BME280;59968;51.084;16.748;2023-07-13T05:51:06;99981.70;;;18.11;85.33
72096;BME280;59968;51.084;16.748;2023-07-13T05:53:34;99984.96;;;18.15;85.62
72096;BME280;59968;51.084;16.748;2023-07-13T05:56:03;99988.52;;;18.18;85.51
72096;BME280;59968;51.084;16.748;2023-07-13T05:58:32;100000.54;;;18.22;85.46
72096;BME280;59968;51.084;16.748;2023-07-13T06:01:09;100000.88;;;18.25;85.33
72096;BME280;59968;51.084;16.748;2023-07-13T06:03:39;99997.31;;;18.30;85.72
72096;BME280;59968;51.084;16.748;2023-07-13T06:06:09;99991.52;;;18.33;85.45
72096;BME280;59968;51.084;16.748;2023-07-13T06:08:39;99981.92;;;18.29;86.15
72096;BME280;59968;51.084;16.748;2023-07-13T06:11:16;99987.16;;;18.38;85.94
72096;BME280;59968;51.084;16.748;2023-07-13T06:13:45;99987.55;;;18.49;85.89
72096;BME280;59968;51.084;16.748;2023-07-13T06:16:15;100001.33;;;18.66;85.98
72096;BME280;59968;51.084;16.748;2023-07-13T06:18:44;100010.49;;;18.80;86.33
72096;BME280;59968;51.084;16.748;2023-07-13T06:21:16;100016.65;;;18.93;86.33
72096;BME280;59968;51.084;16.748;2023-07-13T06:23:46;100033.73;;;19.03;86.24
72096;BME280;59968;51.084;16.748;2023-07-13T06:26:18;100053.28;;;19.03;85.97
72096;BME280;59968;51.084;16.748;2023-07-13T06:28:49;100066.11;;;18.99;85.55
72096;BME280;59968;51.084;16.748;2023-07-13T06:31:21;100074.63;;;18.87;84.97
72096;BME280;59968;51.084;16.748;2023-07-13T06:33:55;100067.12;;;18.67;84.61
72096;BME280;59968;51.084;16.748;2023-07-13T06:36:26;100077.73;;;18.62;84.82
72096;BME280;59968;51.084;16.748;2023-07-13T06:38:55;100074.59;;;18.52;85.19
72096;BME280;59968;51.084;16.748;2023-07-13T06:41:24;100074.89;;;18.45;85.63
72096;BME280;59968;51.084;16.748;2023-07-13T06:43:59;100086.17;;;18.36;86.12
72096;BME280;59968;51.084;16.748;2023-07-13T06:46:29;100093.08;;;18.29;86.00
72096;BME280;59968;51.084;16.748;2023-07-13T06:48:58;100103.17;;;18.27;86.13
72096;BME280;59968;51.084;16.748;2023-07-13T06:51:27;100117.31;;;18.28;86.51
72096;BME280;59968;51.084;16.748;2023-07-13T06:53:58;100131.02;;;18.31;86.63
72096;BME280;59968;51.084;16.748;2023-07-13T06:56:28;100134.27;;;18.35;86.65
72096;BME280;59968;51.084;16.748;2023-07-13T06:58:57;100142.90;;;18.37;86.51
72096;BME280;59968;51.084;16.748;2023-07-13T07:01:27;100145.44;;;18.38;86.36
72096;BME280;59968;51.084;16.748;2023-07-13T07:03:58;100132.63;;;18.38;86.30
72096;BME280;59968;51.084;16.748;2023-07-13T07:06:28;100123.96;;;18.38;86.11
72096;BME280;59968;51.084;16.748;2023-07-13T07:08:58;100115.92;;;18.38;86.00
72096;BME280;59968;51.084;16.748;2023-07-13T07:11:27;100111.52;;;18.35;86.03
72096;BME280;59968;51.084;16.748;2023-07-13T07:13:57;100092.80;;;18.33;85.84
72096;BME280;59968;51.084;16.748;2023-07-13T07:16:26;100068.75;;;18.32;85.87
72096;BME280;59968;51.084;16.748;2023-07-13T07:18:57;100036.33;;;18.34;86.06
72096;BME280;59968;51.084;16.748;2023-07-13T07:21:26;99998.59;;;18.36;86.22
72096;BME280;59968;51.084;16.748;2023-07-13T07:23:55;99982.77;;;18.39;86.10
72096;BME280;59968;51.084;16.748;2023-07-13T07:26:24;99992.27;;;18.39;86.04
72096;BME280;59968;51.084;16.748;2023-07-13T07:28:58;100003.95;;;18.43;85.82
72096;BME280;59968;51.084;16.748;2023-07-13T07:31:29;100001.47;;;18.48;85.93
72096;BME280;59968;51.084;16.748;2023-07-13T07:34:01;100017.73;;;18.57;85.93
72096;BME280;59968;51.084;16.748;2023-07-13T07:36:30;100033.15;;;18.64;86.05
72096;BME280;59968;51.084;16.748;2023-07-13T07:39:03;100038.73;;;18.71;86.25
72096;BME280;59968;51.084;16.748;2023-07-13T07:41:32;100040.38;;;18.84;86.47
72096;BME280;59968;51.084;16.748;2023-07-13T07:44:04;100049.88;;;18.99;85.77
72096;BME280;59968;51.084;16.748;2023-07-13T07:46:37;100051.24;;;19.18;85.63
72096;BME280;59968;51.084;16.748;2023-07-13T07:49:06;100048.14;;;19.41;85.84
72096;BME280;59968;51.084;16.748;2023-07-13T07:51:35;100044.85;;;19.60;85.57
72096;BME280;59968;51.084;16.748;2023-07-13T07:54:05;100056.76;;;19.80;84.03
72096;BME280;59968;51.084;16.748;2023-07-13T07:56:33;100064.65;;;19.90;83.12
72096;BME280;59968;51.084;16.748;2023-07-13T07:59:05;100061.39;;;20.01;83.60
72096;BME280;59968;51.084;16.748;2023-07-13T08:01:37;100068.98;;;20.14;82.48
72096;BME280;59968;51.084;16.748;2023-07-13T08:04:26;100071.15;;;20.23;81.82
72096;BME280;59968;51.084;16.748;2023-07-13T08:06:57;100079.02;;;20.27;80.67
72096;BME280;59968;51.084;16.748;2023-07-13T08:09:27;100080.27;;;20.34;81.15
72096;BME280;59968;51.084;16.748;2023-07-13T08:11:56;100082.17;;;20.40;81.39
72096;BME280;59968;51.084;16.748;2023-07-13T08:14:29;100079.14;;;20.44;80.02
72096;BME280;59968;51.084;16.748;2023-07-13T08:17:17;100082.67;;;20.45;79.71
72096;BME280;59968;51.084;16.748;2023-07-13T08:19:46;100087.91;;;20.49;79.93
72096;BME280;59968;51.084;16.748;2023-07-13T08:22:15;100087.52;;;20.61;81.20
72096;BME280;59968;51.084;16.748;2023-07-13T08:24:45;100089.82;;;20.75;81.43
72096;BME280;59968;51.084;16.748;2023-07-13T08:27:13;100094.80;;;20.87;80.57
72096;BME280;59968;51.084;16.748;2023-07-13T08:29:42;100100.04;;;20.96;80.25
72096;BME280;59968;51.084;16.748;2023-07-13T08:32:11;100104.90;;;21.05;80.04
72096;BME280;59968;51.084;16.748;2023-07-13T08:34:40;100105.69;;;21.17;79.68
72096;BME280;59968;51.084;16.748;2023-07-13T08:37:09;100106.16;;;21.31;78.51
72096;BME280;59968;51.084;16.748;2023-07-13T08:39:39;100109.64;;;21.50;77.81
72096;BME280;59968;51.084;16.748;2023-07-13T08:42:39;100109.73;;;21.69;77.24
72096;BME280;59968;51.084;16.748;2023-07-13T08:47:46;100108.38;;;21.98;76.62
72096;BME280;59968;51.084;16.748;2023-07-13T08:50:19;100105.71;;;22.09;76.58
72096;BME280;59968;51.084;16.748;2023-07-13T08:52:51;100106.36;;;22.20;76.15
72096;BME280;59968;51.084;16.748;2023-07-13T08:55:30;100110.11;;;22.34;76.07
72096;BME280;59968;51.084;16.748;2023-07-13T08:58:13;100111.00;;;22.48;75.05
72096;BME280;59968;51.084;16.748;2023-07-13T09:03:23;100114.81;;;22.65;74.45
72096;BME280;59968;51.084;16.748;2023-07-13T09:05:55;100110.65;;;22.72;74.26
72096;BME280;59968;51.084;16.748;2023-07-13T09:11:50;100111.83;;;22.89;73.50
72096;BME280;59968;51.084;16.748;2023-07-13T09:14:49;100120.98;;;23.03;73.51
72096;BME280;59968;51.084;16.748;2023-07-13T09:17:26;100122.30;;;23.13;73.14
72096;BME280;59968;51.084;16.748;2023-07-13T09:20:03;100118.33;;;23.22;72.26
72096;BME280;59968;51.084;16.748;2023-07-13T09:22:38;100120.40;;;23.35;71.97
72096;BME280;59968;51.084;16.748;2023-07-13T09:28:28;100128.27;;;23.46;70.27
72096;BME280;59968;51.084;16.748;2023-07-13T09:31:06;100130.21;;;23.48;69.89
72096;BME280;59968;51.084;16.748;2023-07-13T09:33:37;100135.98;;;23.54;70.06
72096;BME280;59968;51.084;16.748;2023-07-13T09:39:10;100129.30;;;23.77;69.61
72096;BME280;59968;51.084;16.748;2023-07-13T09:47:21;100132.65;;;24.29;67.72
72096;BME280;59968;51.084;16.748;2023-07-13T09:50:03;100135.73;;;24.41;67.76
72096;BME280;59968;51.084;16.748;2023-07-13T09:55:32;100131.64;;;24.80;64.22
72096;BME280;59968;51.084;16.748;2023-07-13T10:00:39;100127.32;;;24.98;63.31
72096;BME280;59968;51.084;16.748;2023-07-13T10:03:23;100112.43;;;25.00;63.08
72096;BME280;59968;51.084;16.748;2023-07-13T10:05:53;100125.33;;;25.24;62.75
72096;BME280;59968;51.084;16.748;2023-07-13T10:08:29;100123.19;;;25.35;62.34
72096;BME280;59968;51.084;16.748;2023-07-13T10:11:08;100129.42;;;25.48;62.71
72096;BME280;59968;51.084;16.748;2023-07-13T10:13:52;100127.39;;;25.56;60.88
72096;BME280;59968;51.084;16.748;2023-07-13T10:16:25;100135.45;;;25.65;61.60
72096;BME280;59968;51.084;16.748;2023-07-13T10:18:59;100137.90;;;25.68;60.52
72096;BME280;59968;51.084;16.748;2023-07-13T10:21:49;100142.05;;;25.72;59.47
72096;BME280;59968;51.084;16.748;2023-07-13T10:24:25;100142.38;;;25.83;58.92
72096;BME280;59968;51.084;16.748;2023-07-13T10:29:45;100135.02;;;25.99;57.95
72096;BME280;59968;51.084;16.748;2023-07-13T10:32:14;100131.18;;;26.08;57.86
72096;BME280;59968;51.084;16.748;2023-07-13T10:34:45;100129.54;;;26.14;57.76
72096;BME280;59968;51.084;16.748;2023-07-13T10:37:19;100130.87;;;26.16;57.02
72096;BME280;59968;51.084;16.748;2023-07-13T10:39:54;100116.40;;;26.09;57.12
72096;BME280;59968;51.084;16.748;2023-07-13T10:42:35;100135.58;;;26.15;55.59
72096;BME280;59968;51.084;16.748;2023-07-13T10:45:18;100136.88;;;26.05;53.56
72096;BME280;59968;51.084;16.748;2023-07-13T10:47:52;100134.78;;;25.88;53.60
72096;BME280;59968;51.084;16.748;2023-07-13T10:50:27;100135.08;;;25.75;53.36
72096;BME280;59968;51.084;16.748;2023-07-13T10:58:33;100133.17;;;25.75;54.77
72096;BME280;59968;51.084;16.748;2023-07-13T11:01:16;100134.48;;;25.78;55.10
72096;BME280;59968;51.084;16.748;2023-07-13T11:03:54;100130.61;;;25.72;54.40
72096;BME280;59968;51.084;16.748;2023-07-13T11:07:19;100132.58;;;25.68;54.69
72096;BME280;59968;51.084;16.748;2023-07-13T11:09:33;100134.08;;;25.75;55.14
72096;BME280;59968;51.084;16.748;2023-07-13T11:22:46;100134.95;;;25.64;51.59
72096;BME280;59968;51.084;16.748;2023-07-13T11:25:28;100135.13;;;25.60;52.40
72096;BME280;59968;51.084;16.748;2023-07-13T11:30:59;100137.65;;;25.64;53.14
72096;BME280;59968;51.084;16.748;2023-07-13T11:33:49;100130.24;;;25.68;52.64
72096;BME280;59968;51.084;16.748;2023-07-13T11:36:23;100135.80;;;25.77;51.13
72096;BME280;59968;51.084;16.748;2023-07-13T11:39:00;100133.06;;;25.78;51.67
72096;BME280;59968;51.084;16.748;2023-07-13T11:41:34;100133.43;;;25.83;51.13
72096;BME280;59968;51.084;16.748;2023-07-13T11:44:14;100127.95;;;25.79;50.67
72096;BME280;59968;51.084;16.748;2023-07-13T11:46:48;100130.31;;;25.74;50.97
72096;BME280;59968;51.084;16.748;2023-07-13T11:49:25;100123.14;;;25.71;50.36
72096;BME280;59968;51.084;16.748;2023-07-13T11:51:57;100119.89;;;25.75;49.69
72096;BME280;59968;51.084;16.748;2023-07-13T11:57:01;100132.29;;;25.94;51.66
72096;BME280;59968;51.084;16.748;2023-07-13T11:59:39;100133.98;;;26.02;51.11
72096;BME280;59968;51.084;16.748;2023-07-13T12:04:54;100132.38;;;26.09;50.95
72096;BME280;59968;51.084;16.748;2023-07-13T12:07:23;100129.04;;;26.18;49.18
72096;BME280;59968;51.084;16.748;2023-07-13T12:09:51;100131.42;;;26.29;50.46
72096;BME280;59968;51.084;16.748;2023-07-13T12:12:27;100128.34;;;26.43;49.70
72096;BME280;59968;51.084;16.748;2023-07-13T12:14:57;100126.56;;;26.53;49.04
72096;BME280;59968;51.084;16.748;2023-07-13T12:17:28;100119.18;;;26.56;49.37
72096;BME280;59968;51.084;16.748;2023-07-13T12:19:57;100121.42;;;26.63;48.21
72096;BME280;59968;51.084;16.748;2023-07-13T12:22:27;100122.92;;;26.62;48.98
72096;BME280;59968;51.084;16.748;2023-07-13T12:24:56;100122.34;;;26.65;48.62
72096;BME280;59968;51.084;16.748;2023-07-13T12:27:27;100122.06;;;26.70;46.56
72096;BME280;59968;51.084;16.748;2023-07-13T12:30:00;100125.44;;;26.71;46.78
72096;BME280;59968;51.084;16.748;2023-07-13T12:32:29;100125.17;;;26.71;45.08
72096;BME280;59968;51.084;16.748;2023-07-13T12:35:14;100125.45;;;26.76;45.09
72096;BME280;59968;51.084;16.748;2023-07-13T12:37:46;100118.23;;;26.87;44.49
72096;BME280;59968;51.084;16.748;2023-07-13T12:40:26;100115.50;;;27.00;44.20
72096;BME280;59968;51.084;16.748;2023-07-13T12:42:58;100111.91;;;27.13;45.21
72096;BME280;59968;51.084;16.748;2023-07-13T12:45:28;100106.40;;;27.29;45.22
72096;BME280;59968;51.084;16.748;2023-07-13T12:48:05;100099.73;;;27.37;44.10
72096;BME280;59968;51.084;16.748;2023-07-13T12:50:40;100096.41;;;27.41;45.68
72096;BME280;59968;51.084;16.748;2023-07-13T12:53:14;100102.23;;;27.38;43.79
72096;BME280;59968;51.084;16.748;2023-07-13T12:55:50;100100.52;;;27.39;45.07
72096;BME280;59968;51.084;16.748;2023-07-13T12:58:27;100096.17;;;27.47;45.20
72096;BME280;59968;51.084;16.748;2023-07-13T13:00:58;100101.08;;;27.59;45.11
72096;BME280;59968;51.084;16.748;2023-07-13T13:03:36;100096.41;;;27.69;44.08
72096;BME280;59968;51.084;16.748;2023-07-13T13:08:53;100090.75;;;27.89;43.16
72096;BME280;59968;51.084;16.748;2023-07-13T13:11:29;100078.77;;;27.92;43.04
72096;BME280;59968;51.084;16.748;2023-07-13T13:13:59;100082.04;;;28.07;41.52
72096;BME280;59968;51.084;16.748;2023-07-13T13:19:01;100086.97;;;28.16;40.47
72096;BME280;59968;51.084;16.748;2023-07-13T13:21:32;100082.71;;;28.19;41.77
72096;BME280;59968;51.084;16.748;2023-07-13T13:24:01;100081.16;;;28.31;41.85
72096;BME280;59968;51.084;16.748;2023-07-13T13:26:30;100082.88;;;28.41;40.72
72096;BME280;59968;51.084;16.748;2023-07-13T13:29:09;100074.77;;;28.44;39.51
72096;BME280;59968;51.084;16.748;2023-07-13T13:31:42;100075.32;;;28.51;40.44
72096;BME280;59968;51.084;16.748;2023-07-13T13:34:15;100075.55;;;28.58;39.26
72096;BME280;59968;51.084;16.748;2023-07-13T13:36:46;100075.47;;;28.61;37.90
72096;BME280;59968;51.084;16.748;2023-07-13T13:39:24;100075.52;;;28.57;38.76
72096;BME280;59968;51.084;16.748;2023-07-13T13:41:53;100074.02;;;28.57;38.25
72096;BME280;59968;51.084;16.748;2023-07-13T13:44:23;100075.39;;;28.59;37.92
72096;BME280;59968;51.084;16.748;2023-07-13T13:46:54;100056.77;;;28.53;38.12
72096;BME280;59968;51.084;16.748;2023-07-13T13:49:25;100065.16;;;28.70;38.02
72096;BME280;59968;51.084;16.748;2023-07-13T13:51:55;100069.24;;;28.72;37.57
72096;BME280;59968;51.084;16.748;2023-07-13T13:54:24;100068.09;;;28.58;36.82
72096;BME280;59968;51.084;16.748;2023-07-13T13:56:55;100068.19;;;28.37;37.50
72096;BME280;59968;51.084;16.748;2023-07-13T13:59:24;100064.67;;;28.22;38.58
72096;BME280;59968;51.084;16.748;2023-07-13T14:01:54;100064.56;;;28.14;38.78
72096;BME280;59968;51.084;16.748;2023-07-13T14:04:23;100066.65;;;28.08;37.68
72096;BME280;59968;51.084;16.748;2023-07-13T14:06:52;100066.36;;;27.99;38.06